Time;durP1;ratioP1;P1;durP2;ratioP2;P2;SDS_P1;SDS_P2;PMS_P1;PMS_P2;Temp;Humidity;BMP_temperature;BMP_pressure;BME280_temperature;BME280_humidity;BME280_pressure;Samples;Min_cycle;Max_cycle;Signal;HPM_P1;HPM_P2
2023/02/07 00:00:54;;;;;;;22.95;16.15;;;19.20;30.00;;;;;;4993689;28;20487;-66
2023/02/07 00:03:21;;;;;;;25.20;17.40;;;19.20;30.00;;;;;;5014486;28;20136;-66
2023/02/07 00:05:48;;;;;;;22.98;16.77;;;19.20;29.90;;;;;;5014097;28;20053;-66
2023/02/07 00:08:16;;;;;;;25.88;17.75;;;19.20;30.00;;;;;;5014000;28;20054;-66
2023/02/07 00:10:43;;;;;;;25.33;16.73;;;19.20;30.00;;;;;;5014128;28;20046;-66
2023/02/07 00:13:10;;;;;;;23.90;16.45;;;19.20;30.00;;;;;;5014194;28;20045;-66
2023/02/07 00:15:37;;;;;;;23.05;16.25;;;19.20;30.00;;;;;;5013883;28;20108;-66
2023/02/07 00:18:04;;;;;;;23.55;16.52;;;19.20;29.90;;;;;;5013552;28;20058;-66
2023/02/07 00:20:32;;;;;;;26.45;18.10;;;19.20;30.00;;;;;;5013763;28;20050;-66
2023/02/07 00:22:59;;;;;;;24.83;16.98;;;19.20;30.00;;;;;;4993446;28;20049;-66
2023/02/07 00:25:26;;;;;;;23.65;16.20;;;19.20;29.90;;;;;;5013983;28;20466;-66
2023/02/07 00:27:53;;;;;;;22.13;16.60;;;19.20;29.90;;;;;;5013811;28;20041;-65
2023/02/07 00:30:20;;;;;;;23.75;16.40;;;19.20;30.00;;;;;;5013433;28;20049;-66
2023/02/07 00:32:47;;;;;;;24.25;16.92;;;19.20;29.90;;;;;;5013413;28;20124;-65
2023/02/07 00:35:14;;;;;;;24.05;17.40;;;19.20;29.90;;;;;;5013582;28;20386;-66
2023/02/07 00:37:42;;;;;;;23.33;16.30;;;19.20;29.90;;;;;;4992887;28;20046;-66
2023/02/07 00:40:09;;;;;;;23.40;15.90;;;19.20;29.90;;;;;;4994421;28;20148;-65
2023/02/07 00:42:36;;;;;;;25.42;16.40;;;19.20;30.00;;;;;;5014182;28;20057;-66
2023/02/07 00:45:03;;;;;;;25.90;17.55;;;19.20;30.00;;;;;;5013527;28;20053;-65
2023/02/07 00:47:30;;;;;;;24.48;16.80;;;19.20;30.00;;;;;;5013747;28;20568;-66
2023/02/07 00:49:57;;;;;;;24.38;16.45;;;19.20;30.00;;;;;;5013469;28;20056;-66
2023/02/07 00:52:25;;;;;;;25.08;16.95;;;19.20;29.90;;;;;;5013480;28;20490;-65
2023/02/07 00:54:52;;;;;;;23.00;15.75;;;19.20;29.90;;;;;;5013387;28;20046;-66
2023/02/07 00:57:19;;;;;;;24.00;16.15;;;19.20;29.90;;;;;;5013072;28;20050;-65
2023/02/07 00:59:46;;;;;;;21.35;15.40;;;19.10;29.80;;;;;;5013366;28;20053;-66
2023/02/07 01:02:13;;;;;;;22.45;16.58;;;19.20;29.90;;;;;;5013232;28;20046;-66
2023/02/07 01:04:40;;;;;;;23.02;16.05;;;19.20;29.90;;;;;;5013735;28;20441;-66
2023/02/07 01:07:08;;;;;;;25.85;17.67;;;19.20;29.80;;;;;;5013499;28;20073;-66
2023/02/07 01:09:35;;;;;;;24.63;17.42;;;19.20;29.80;;;;;;5012990;28;20697;-65
2023/02/07 01:12:02;;;;;;;25.85;17.52;;;19.20;29.80;;;;;;5012857;28;20050;-66
2023/02/07 01:14:29;;;;;;;24.25;16.23;;;19.10;29.80;;;;;;5013260;28;20052;-66
2023/02/07 01:16:56;;;;;;;26.08;17.55;;;19.10;29.80;;;;;;5012773;28;20050;-66
2023/02/07 01:19:23;;;;;;;25.10;17.90;;;19.10;29.80;;;;;;5012150;28;20069;-66
2023/02/07 01:21:50;;;;;;;23.85;16.73;;;19.10;29.80;;;;;;5013302;28;20042;-66
2023/02/07 01:24:18;;;;;;;24.45;17.17;;;19.10;29.80;;;;;;5013392;28;20056;-66
2023/02/07 01:26:45;;;;;;;25.55;17.55;;;19.10;29.70;;;;;;5012732;28;20050;-66
2023/02/07 01:29:14;;;;;;;23.67;16.38;;;19.10;29.80;;;;;;5013155;28;20463;-65
2023/02/07 01:31:42;;;;;;;22.42;16.17;;;19.10;29.80;;;;;;5012884;28;20054;-66
2023/02/07 01:34:11;;;;;;;26.77;17.55;;;19.10;29.80;;;;;;5013187;28;20057;-65
2023/02/07 01:36:39;;;;;;;26.40;17.90;;;19.00;29.70;;;;;;5012535;28;20057;-65
2023/02/07 01:39:07;;;;;;;24.33;16.33;;;19.00;29.70;;;;;;5012599;28;20725;-65
2023/02/07 01:41:34;;;;;;;22.65;16.33;;;19.00;29.70;;;;;;4993447;28;20057;-66
2023/02/07 01:44:07;;;;;;;25.00;16.55;;;19.00;29.70;;;;;;4995114;28;20056;-65
2023/02/07 01:46:35;;;;;;;24.15;17.05;;;19.00;29.70;;;;;;4996817;28;20100;-66
2023/02/07 01:49:09;;;;;;;23.55;16.08;;;19.00;30.10;;;;;;4997114;28;20054;-66
2023/02/07 01:51:37;;;;;;;24.33;16.67;;;19.00;29.70;;;;;;4997436;28;20405;-66
2023/02/07 01:54:08;;;;;;;22.95;16.13;;;19.00;29.70;;;;;;4996517;28;20053;-66
2023/02/07 01:56:40;;;;;;;24.05;16.05;;;19.00;29.70;;;;;;4979179;28;20046;-65
2023/02/07 01:59:07;;;;;;;25.60;16.90;;;19.00;29.70;;;;;;4979829;28;20482;-65
2023/02/07 02:01:35;;;;;;;24.10;16.02;;;19.00;29.70;;;;;;4997366;28;20084;-65
2023/02/07 02:04:03;;;;;;;23.05;15.95;;;19.00;29.70;;;;;;4996604;28;20093;-66
2023/02/07 02:06:32;;;;;;;22.70;16.05;;;19.00;29.70;;;;;;4997231;28;20057;-65
2023/02/07 02:09:01;;;;;;;21.75;15.55;;;19.00;29.70;;;;;;4997148;28;20046;-65
2023/02/07 02:12:08;;;;;;;21.92;14.90;;;19.00;29.70;;;;;;4996722;28;20558;-65
2023/02/07 02:14:57;;;;;;;21.15;15.27;;;19.00;29.70;;;;;;4985603;28;20065;-65
2023/02/07 02:18:03;;;;;;;23.90;16.17;;;19.00;29.70;;;;;;4995903;28;20046;-66
2023/02/07 02:21:06;;;;;;;23.88;16.20;;;19.00;29.70;;;;;;4996452;28;20046;-65
2023/02/07 02:24:12;;;;;;;24.10;15.70;;;18.90;29.60;;;;;;4996977;28;20054;-66
2023/02/07 02:27:10;;;;;;;20.77;14.25;;;19.00;29.70;;;;;;4996535;28;20050;-66
2023/02/07 02:30:17;;;;;;;23.10;15.35;;;18.90;29.60;;;;;;4996577;28;20418;-66
2023/02/07 02:33:06;;;;;;;22.15;15.55;;;18.90;29.60;;;;;;4982357;28;20453;-66
2023/02/07 02:35:57;;;;;;;20.25;14.60;;;18.90;29.60;;;;;;4995581;28;20410;-66
2023/02/07 02:38:45;;;;;;;21.85;15.23;;;18.90;29.60;;;;;;4995942;28;20138;-66
2023/02/07 02:41:20;;;;;;;21.65;15.45;;;18.90;29.60;;;;;;5012367;28;20129;-66
2023/02/07 02:44:12;;;;;;;21.00;15.25;;;18.90;29.60;;;;;;5015894;28;20100;-66
2023/02/07 02:46:41;;;;;;;23.52;15.73;;;19.00;29.60;;;;;;5015738;28;20540;-65
2023/02/07 02:49:12;;;;;;;21.63;14.93;;;18.90;29.60;;;;;;5016099;28;20409;-65
2023/02/07 02:51:39;;;;;;;22.60;15.10;;;18.90;29.60;;;;;;4998312;28;20437;-65
2023/02/07 02:54:31;;;;;;;20.70;14.32;;;18.90;29.60;;;;;;5015768;28;20053;-66
2023/02/07 02:57:38;;;;;;;23.65;15.50;;;18.90;29.60;;;;;;4997570;28;20042;-66
2023/02/07 03:00:31;;;;;;;23.33;14.85;;;19.00;29.70;;;;;;5014974;28;20456;-66
2023/02/07 03:03:20;;;;;;;19.77;14.05;;;18.90;29.60;;;;;;5015859;28;20383;-66
2023/02/07 03:06:15;;;;;;;19.50;13.98;;;19.00;29.70;;;;;;5015377;28;20062;-67
2023/02/07 03:09:08;;;;;;;20.83;13.57;;;18.90;29.60;;;;;;5014954;28;20054;-66
2023/02/07 03:11:48;;;;;;;19.60;13.77;;;19.00;29.70;;;;;;4995748;28;20137;-65
2023/02/07 03:14:34;;;;;;;21.73;14.50;;;18.90;29.60;;;;;;4995853;28;20054;-65
2023/02/07 03:17:28;;;;;;;20.00;13.35;;;19.00;29.60;;;;;;4995530;28;20053;-66
2023/02/07 03:20:13;;;;;;;20.42;13.52;;;19.00;29.60;;;;;;4995369;28;20418;-66
2023/02/07 03:22:42;;;;;;;19.42;13.90;;;18.90;29.50;;;;;;4995905;28;20042;-66
2023/02/07 03:25:13;;;;;;;20.63;14.02;;;18.90;29.50;;;;;;4994793;28;20058;-66
2023/02/07 03:27:41;;;;;;;22.25;14.13;;;18.90;29.50;;;;;;4995453;28;20133;-66
2023/02/07 03:30:12;;;;;;;20.63;13.65;;;18.90;29.50;;;;;;4995537;28;20466;-66
2023/02/07 03:32:41;;;;;;;;;;;18.90;29.50;;;;;;4995951;28;20054;-66
2023/02/07 03:35:19;;;;;;;19.55;14.38;;;18.90;29.50;;;;;;4995248;28;19921;-65
2023/02/07 03:37:55;;;;;;;20.73;14.40;;;18.90;29.50;;;;;;4995359;28;20046;-66
2023/02/07 03:40:26;;;;;;;21.17;12.82;;;18.90;29.50;;;;;;5026450;28;20059;-66
2023/02/07 03:43:11;;;;;;;18.00;13.05;;;18.90;29.50;;;;;;5034587;28;20413;-67
2023/02/07 03:45:39;;;;;;;21.33;14.02;;;18.80;29.40;;;;;;5034399;28;20595;-66
2023/02/07 03:48:06;;;;;;;19.65;13.48;;;18.80;29.50;;;;;;5034493;28;20057;-66
2023/02/07 03:50:33;;;;;;;18.00;12.95;;;18.80;29.40;;;;;;5034354;28;20531;-66
2023/02/07 03:53:01;;;;;;;19.10;13.50;;;18.80;29.40;;;;;;5034423;28;20056;-66
2023/02/07 03:55:28;;;;;;;19.33;13.35;;;18.80;29.40;;;;;;5034038;28;20124;-66
2023/02/07 03:57:55;;;;;;;20.40;13.30;;;18.80;29.50;;;;;;5034006;28;20580;-66
2023/02/07 04:00:22;;;;;;;17.13;12.57;;;18.80;29.40;;;;;;5020895;28;20382;-66
2023/02/07 04:02:50;;;;;;;20.10;12.88;;;18.80;29.40;;;;;;5014299;28;20046;-66
2023/02/07 04:05:17;;;;;;;20.85;14.10;;;18.80;29.40;;;;;;5014776;28;20045;-66
2023/02/07 04:07:44;;;;;;;18.35;12.60;;;18.80;29.40;;;;;;5013233;28;20046;-66
2023/02/07 04:10:11;;;;;;;19.45;13.73;;;18.90;29.40;;;;;;5013743;28;20141;-66
2023/02/07 04:12:38;;;;;;;18.75;12.27;;;18.80;29.40;;;;;;5014080;28;20054;-66
2023/02/07 04:15:06;;;;;;;17.98;12.15;;;18.80;29.40;;;;;;5014112;28;20048;-66
2023/02/07 04:17:34;;;;;;;16.42;11.90;;;18.80;29.40;;;;;;5014349;28;20045;-66
2023/02/07 04:20:01;;;;;;;15.90;12.68;;;18.80;29.40;;;;;;5013204;28;20052;-66
2023/02/07 04:22:28;;;;;;;16.52;12.15;;;18.80;29.40;;;;;;5018172;28;20050;-66
2023/02/07 04:24:56;;;;;;;17.70;12.73;;;18.80;29.40;;;;;;5033651;28;20075;-65
2023/02/07 04:27:23;;;;;;;19.23;12.93;;;18.80;29.40;;;;;;5033562;28;20100;-66
2023/02/07 04:29:51;;;;;;;17.52;12.15;;;18.80;29.40;;;;;;5033489;28;20404;-66
2023/02/07 04:32:18;;;;;;;17.48;12.20;;;18.70;29.30;;;;;;5033168;28;20053;-65
2023/02/07 04:34:45;;;;;;;15.77;11.52;;;18.70;29.30;;;;;;5033370;28;20088;-65
2023/02/07 04:37:12;;;;;;;16.25;11.93;;;18.70;29.30;;;;;;5033492;28;20408;-66
2023/02/07 04:39:40;;;;;;;15.32;11.65;;;18.70;29.30;;;;;;5030438;28;20050;-66
2023/02/07 04:42:07;;;;;;;17.08;12.45;;;18.80;29.30;;;;;;5013361;28;20046;-66
2023/02/07 04:44:34;;;;;;;18.08;12.00;;;18.70;29.30;;;;;;5014080;28;20056;-66
2023/02/07 04:47:01;;;;;;;17.50;12.27;;;18.70;29.30;;;;;;5013167;28;20042;-65
2023/02/07 04:49:28;;;;;;;19.00;13.20;;;18.70;29.30;;;;;;5008347;28;20136;-66
2023/02/07 04:51:56;;;;;;;17.20;11.65;;;18.70;29.30;;;;;;5024277;28;20449;-66
2023/02/07 04:54:23;;;;;;;16.50;11.85;;;18.70;29.20;;;;;;5011594;28;20054;-66
2023/02/07 04:56:50;;;;;;;17.05;11.95;;;18.70;29.30;;;;;;5013215;28;20403;-65
2023/02/07 04:59:17;;;;;;;19.50;12.57;;;18.70;29.30;;;;;;5013331;28;20046;-66
2023/02/07 05:01:44;;;;;;;16.65;11.20;;;18.70;29.30;;;;;;5013351;28;20329;-65
2023/02/07 05:04:11;;;;;;;17.10;11.25;;;18.80;29.30;;;;;;5013046;28;20058;-66
2023/02/07 05:06:39;;;;;;;16.10;11.43;;;18.70;29.30;;;;;;5012576;28;20459;-65
2023/02/07 05:09:06;;;;;;;16.15;11.13;;;18.70;29.30;;;;;;5013632;28;20049;-65
2023/02/07 05:11:33;;;;;;;16.42;11.27;;;18.80;29.40;;;;;;5013594;28;20050;-65
2023/02/07 05:14:00;;;;;;;14.70;10.85;;;18.70;29.30;;;;;;5010612;28;20050;-65
2023/02/07 05:16:27;;;;;;;18.13;11.65;;;18.70;29.30;;;;;;5024921;28;20053;-66
2023/02/07 05:18:54;;;;;;;16.88;11.48;;;18.70;29.30;;;;;;5021562;28;20042;-65
2023/02/07 05:21:22;;;;;;;15.52;10.73;;;18.70;29.30;;;;;;5016175;28;20141;-65
2023/02/07 05:23:49;;;;;;;15.25;10.77;;;18.70;29.30;;;;;;5011226;28;20046;-65
2023/02/07 05:26:16;;;;;;;16.17;10.80;;;18.80;29.30;;;;;;5012838;28;20152;-66
2023/02/07 05:28:43;;;;;;;15.00;10.85;;;18.70;29.20;;;;;;5011727;28;20052;-65
2023/02/07 05:31:11;;;;;;;16.25;11.45;;;18.70;29.20;;;;;;5010199;28;20052;-67
2023/02/07 05:33:38;;;;;;;15.32;11.02;;;18.70;29.20;;;;;;5005521;28;20053;-65
2023/02/07 05:36:05;;;;;;;17.45;12.02;;;18.70;29.20;;;;;;5006388;28;20495;-65
2023/02/07 05:38:33;;;;;;;17.65;12.18;;;18.70;29.10;;;;;;5004530;28;20053;-66
2023/02/07 05:41:00;;;;;;;19.42;13.02;;;18.70;28.90;;;;;;5009701;28;20109;-65
2023/02/07 05:43:27;;;;;;;18.00;12.90;;;18.60;28.80;;;;;;5009784;28;20442;-65
2023/02/07 05:45:54;;;;;;;22.77;13.80;;;18.60;28.80;;;;;;5012423;28;20060;-65
2023/02/07 05:48:21;;;;;;;19.02;13.25;;;18.60;28.80;;;;;;5010486;28;20074;-66
2023/02/07 05:50:48;;;;;;;19.52;13.18;;;18.50;28.80;;;;;;5016758;28;20057;-65
2023/02/07 05:53:15;;;;;;;17.90;12.98;;;18.50;28.80;;;;;;5029696;28;20056;-66
2023/02/07 05:55:42;;;;;;;19.73;12.60;;;18.50;28.80;;;;;;5013742;28;20053;-65
2023/02/07 05:58:09;;;;;;;17.80;12.60;;;18.50;28.90;;;;;;5014240;28;20038;-65
2023/02/07 06:00:37;;;;;;;18.00;12.45;;;18.50;28.80;;;;;;5012092;28;20057;-65
2023/02/07 06:03:04;;;;;;;17.27;12.43;;;18.50;28.90;;;;;;5030372;28;20124;-65
2023/02/07 06:05:32;;;;;;;19.27;13.23;;;18.50;28.90;;;;;;5014333;28;20429;-65
2023/02/07 06:07:59;;;;;;;19.67;12.75;;;18.50;28.90;;;;;;5016473;28;20086;-65
2023/02/07 06:10:26;;;;;;;20.00;13.35;;;18.50;28.90;;;;;;5014109;28;20085;-65
2023/02/07 06:12:54;;;;;;;18.65;12.32;;;18.50;28.90;;;;;;5017161;28;20479;-65
2023/02/07 06:15:21;;;;;;;19.55;12.85;;;18.50;28.90;;;;;;5008710;28;20578;-66
2023/02/07 06:17:48;;;;;;;18.42;12.77;;;18.60;29.00;;;;;;5003194;28;20056;-66
2023/02/07 06:20:15;;;;;;;20.13;12.85;;;18.60;29.00;;;;;;5009824;28;20045;-66
2023/02/07 06:22:43;;;;;;;17.05;11.98;;;18.60;29.00;;;;;;5015697;28;20121;-64
2023/02/07 06:25:10;;;;;;;22.35;13.18;;;18.60;28.90;;;;;;5011970;28;20125;-66
2023/02/07 06:27:40;;;;;;;21.63;13.90;;;18.60;28.90;;;;;;5007663;28;20050;-64
2023/02/07 06:30:09;;;;;;;19.08;13.77;;;18.70;29.00;;;;;;5002309;28;20612;-64
2023/02/07 06:32:36;;;;;;;18.67;13.35;;;18.70;29.10;;;;;;5013733;28;20054;-64
2023/02/07 06:35:05;;;;;;;19.92;13.20;;;18.70;29.10;;;;;;5009648;28;20553;-62
2023/02/07 06:37:32;;;;;;;20.38;13.70;;;18.70;29.10;;;;;;5010952;28;20060;-64
2023/02/07 06:39:59;;;;;;;19.38;14.00;;;18.80;29.10;;;;;;5001783;28;21963;-64
2023/02/07 06:42:26;;;;;;;19.65;13.63;;;18.80;29.10;;;;;;5006905;28;20056;-62
2023/02/07 06:44:53;;;;;;;19.25;13.30;;;18.80;29.10;;;;;;5007867;28;20140;-64
2023/02/07 06:47:20;;;;;;;20.33;14.10;;;18.90;29.10;;;;;;5009417;28;20457;-65
2023/02/07 06:49:48;;;;;;;22.25;14.60;;;18.90;29.10;;;;;;5009366;28;20052;-65
2023/02/07 06:52:15;;;;;;;22.38;14.48;;;19.00;29.10;;;;;;5009084;28;20038;-65
2023/02/07 06:54:42;;;;;;;23.50;14.85;;;19.00;29.00;;;;;;4986298;28;20077;-64
2023/02/07 06:57:10;;;;;;;23.73;15.38;;;19.00;29.00;;;;;;5003875;28;20060;-65
2023/02/07 06:59:37;;;;;;;23.92;15.27;;;19.10;29.00;;;;;;5006747;28;20133;-64
2023/02/07 07:02:04;;;;;;;24.52;16.35;;;19.10;29.00;;;;;;5007290;28;20547;-65
2023/02/07 07:04:31;;;;;;;23.70;15.68;;;19.10;29.00;;;;;;5008680;28;20494;-67
2023/02/07 07:06:58;;;;;;;24.73;17.15;;;19.20;29.00;;;;;;5006877;28;20058;-66
2023/02/07 07:09:26;;;;;;;26.67;17.00;;;19.20;29.00;;;;;;5007312;28;20056;-69
2023/02/07 07:11:53;;;;;;;28.27;17.95;;;19.20;29.00;;;;;;5006865;28;20061;-66
2023/02/07 07:14:20;;;;;;;30.55;19.00;;;19.20;29.00;;;;;;5005692;28;20052;-65
2023/02/07 07:16:47;;;;;;;29.58;20.10;;;19.30;29.00;;;;;;5008141;28;20133;-65
2023/02/07 07:19:14;;;;;;;33.08;19.83;;;19.30;29.10;;;;;;5005867;28;20049;-65
2023/02/07 07:21:41;;;;;;;28.67;18.55;;;19.40;29.10;;;;;;5006440;28;20070;-66
2023/02/07 07:24:09;;;;;;;31.60;20.13;;;19.40;29.10;;;;;;4989946;28;20077;-67
2023/02/07 07:26:37;;;;;;;31.13;21.05;;;19.40;29.10;;;;;;5008732;28;20525;-64
2023/02/07 07:29:17;;;;;;;33.22;21.13;;;19.50;29.20;;;;;;5009938;28;20060;-64
2023/02/07 07:31:45;;;;;;;30.60;20.65;;;19.50;29.30;;;;;;5004692;28;20212;-67
2023/02/07 07:34:13;;;;;;;32.80;21.25;;;19.60;29.30;;;;;;5006851;28;20168;-65
2023/02/07 07:36:41;;;;;;;34.92;23.42;;;19.60;29.30;;;;;;5006086;28;20049;-65
2023/02/07 07:39:09;;;;;;;41.17;23.75;;;19.70;29.30;;;;;;5002472;28;20046;-66
2023/02/07 07:41:36;;;;;;;33.65;22.35;;;19.70;29.20;;;;;;5008174;28;20061;-62
2023/02/07 07:44:03;;;;;;;43.50;24.70;;;19.80;29.20;;;;;;5004860;28;20050;-63
2023/02/07 07:46:31;;;;;;;37.72;23.42;;;19.80;29.10;;;;;;5002924;28;20064;-64
2023/02/07 07:48:59;;;;;;;34.22;23.35;;;19.80;29.10;;;;;;5005771;28;20104;-65
2023/02/07 07:51:26;;;;;;;38.80;24.95;;;19.80;29.10;;;;;;5005028;28;20124;-66
2023/02/07 07:53:53;;;;;;;40.83;23.98;;;19.80;29.00;;;;;;5006919;28;20049;-66
2023/02/07 07:56:20;;;;;;;38.97;24.10;;;19.90;29.10;;;;;;5008089;28;20054;-61
2023/02/07 07:58:48;;;;;;;39.78;24.80;;;19.90;29.00;;;;;;5007253;28;20045;-64
2023/02/07 08:01:15;;;;;;;38.45;23.30;;;20.00;29.00;;;;;;5007406;28;20054;-62
2023/02/07 08:03:42;;;;;;;39.97;24.08;;;20.00;29.00;;;;;;4982028;28;20498;-66
2023/02/07 08:06:09;;;;;;;33.50;21.90;;;20.00;29.00;;;;;;5008379;28;20458;-65
2023/02/07 08:08:37;;;;;;;35.97;22.35;;;20.10;29.10;;;;;;4999882;28;20050;-64
2023/02/07 08:11:07;;;;;;;35.50;23.00;;;20.10;29.00;;;;;;5006803;28;20060;-63
2023/02/07 08:13:35;;;;;;;35.70;22.48;;;20.10;29.00;;;;;;5008871;28;21347;-62
2023/02/07 08:16:03;;;;;;;34.20;22.10;;;20.10;29.10;;;;;;4988162;28;20074;-64
2023/02/07 08:18:31;;;;;;;36.45;23.88;;;20.20;29.00;;;;;;5005316;28;20127;-63
2023/02/07 08:20:58;;;;;;;33.03;21.75;;;20.20;28.90;;;;;;5004867;28;20136;-66
2023/02/07 08:23:25;;;;;;;33.88;21.63;;;20.20;28.90;;;;;;5007016;28;20091;-63
2023/02/07 08:25:52;;;;;;;32.78;21.92;;;20.30;28.90;;;;;;5005530;28;20058;-65
2023/02/07 08:28:20;;;;;;;32.75;22.02;;;20.30;29.00;;;;;;5004117;28;20084;-64
2023/02/07 08:30:47;;;;;;;30.92;20.63;;;20.40;29.00;;;;;;5005056;28;20049;-63
2023/02/07 08:33:15;;;;;;;34.60;21.38;;;20.40;29.10;;;;;;5008298;28;20054;-63
2023/02/07 08:35:43;;;;;;;35.17;21.38;;;20.40;29.20;;;;;;5006504;28;20409;-64
2023/02/07 08:38:11;;;;;;;33.03;20.80;;;20.40;29.20;;;;;;5002925;28;20546;-65
2023/02/07 08:40:38;;;;;;;32.78;20.90;;;20.50;29.30;;;;;;5005132;28;20127;-62
2023/02/07 08:43:11;;;;;;;33.80;20.92;;;20.50;29.30;;;;;;5005821;28;20911;-61
2023/02/07 08:45:41;;;;;;;29.95;19.20;;;20.50;29.30;;;;;;5006793;28;20054;-62
2023/02/07 08:48:11;;;;;;;30.85;18.60;;;20.60;29.40;;;;;;5002628;28;20089;-62
2023/02/07 08:50:38;;;;;;;32.85;19.42;;;20.60;29.30;;;;;;5004419;28;20566;-61
2023/02/07 08:53:06;;;;;;;32.55;19.65;;;20.60;29.40;;;;;;5004382;28;20131;-62
2023/02/07 08:55:33;;;;;;;29.42;19.70;;;20.60;29.80;;;;;;5007360;28;20045;-63
2023/02/07 08:58:00;;;;;;;33.85;19.15;;;20.70;30.00;;;;;;5006136;28;20074;-64
2023/02/07 09:00:27;;;;;;;36.40;20.05;;;20.70;30.00;;;;;;5004976;28;20116;-61
2023/02/07 09:02:54;;;;;;;30.55;19.30;;;20.80;30.10;;;;;;5003323;28;20050;-66
2023/02/07 09:05:22;;;;;;;29.52;18.42;;;20.80;30.60;;;;;;5003227;28;20041;-65
2023/02/07 09:07:49;;;;;;;29.50;18.27;;;20.80;30.00;;;;;;5002905;28;20521;-64
2023/02/07 09:10:16;;;;;;;29.38;18.17;;;20.90;30.00;;;;;;5004625;28;20148;-65
2023/02/07 09:12:47;;;;;;;29.67;18.35;;;20.90;30.10;;;;;;5004697;28;20046;-60
2023/02/07 09:15:14;;;;;;;45.25;23.10;;;21.00;30.10;;;;;;5002733;28;20050;-61
2023/02/07 09:17:41;;;;;;;44.47;21.92;;;21.00;30.00;;;;;;5003686;28;20093;-63
2023/02/07 09:20:09;;;;;;;39.25;19.80;;;21.00;30.00;;;;;;5006319;28;20498;-63
2023/02/07 09:23:16;;;;;;;38.30;20.50;;;21.10;30.20;;;;;;5005375;28;20089;-64
2023/02/07 09:25:24;;;;;;;33.83;19.45;;;21.10;30.20;;;;;;5003433;28;20410;-64
2023/02/07 09:27:51;;;;;;;28.45;17.73;;;21.20;30.10;;;;;;5007771;28;20144;-64
2023/02/07 09:30:19;;;;;;;31.33;16.92;;;21.20;29.90;;;;;;5004892;28;20053;-63
2023/02/07 09:32:46;;;;;;;30.42;18.63;;;21.30;29.80;;;;;;5004843;28;20050;-63
2023/02/07 09:35:13;;;;;;;30.92;17.00;;;21.30;29.60;;;;;;5003237;28;20540;-64
2023/02/07 09:37:40;;;;;;;30.15;17.17;;;21.30;29.40;;;;;;5001029;28;20046;-63
2023/02/07 09:40:17;;;;;;;33.60;17.88;;;21.30;29.20;;;;;;5004145;28;20053;-63
2023/02/07 09:43:10;;;;;;;31.55;16.95;;;21.30;29.20;;;;;;5001692;28;20060;-64
2023/02/07 09:45:44;;;;;;;30.65;15.88;;;21.40;29.20;;;;;;5001214;28;20045;-64
2023/02/07 09:48:18;;;;;;;31.02;17.00;;;21.40;29.20;;;;;;5004646;28;20049;-65
2023/02/07 09:50:55;;;;;;;26.90;15.52;;;21.40;29.10;;;;;;5003252;28;20080;-63
2023/02/07 09:53:28;;;;;;;22.75;14.43;;;21.40;29.00;;;;;;5005004;28;20045;-63
2023/02/07 09:55:59;;;;;;;30.17;17.08;;;21.50;29.10;;;;;;5003167;28;20490;-63
2023/02/07 09:58:52;;;;;;;26.70;14.93;;;21.50;29.40;;;;;;5000538;28;20541;-64
2023/02/07 10:01:28;;;;;;;25.95;15.50;;;21.50;28.90;;;;;;4990130;28;20108;-64
2023/02/07 10:04:28;;;;;;;27.52;16.40;;;21.50;28.80;;;;;;5001922;28;20049;-63
2023/02/07 10:06:58;;;;;;;27.02;14.63;;;21.60;28.80;;;;;;5008527;28;20124;-63
2023/02/07 10:09:38;;;;;;;24.47;15.50;;;21.60;28.80;;;;;;5008424;28;20510;-63
2023/02/07 10:12:44;;;;;;;26.87;15.40;;;21.60;28.70;;;;;;5006463;28;20494;-64
2023/02/07 10:15:47;;;;;;;25.73;15.05;;;21.60;28.70;;;;;;4997286;28;20085;-64
2023/02/07 10:18:37;;;;;;;27.45;15.25;;;21.70;28.60;;;;;;5002697;28;20050;-64
2023/02/07 10:21:28;;;;;;;27.75;16.23;;;21.70;28.60;;;;;;5005236;28;20058;-63
2023/02/07 10:24:34;;;;;;;30.92;16.60;;;21.70;28.60;;;;;;5007686;28;20461;-65
2023/02/07 10:27:14;;;;;;;32.95;15.65;;;21.70;28.90;;;;;;5007291;28;20085;-64
2023/02/07 10:29:50;;;;;;;32.00;16.23;;;21.80;28.80;;;;;;5002200;28;20050;-66
2023/02/07 10:32:21;;;;;;;27.67;17.48;;;21.80;28.70;;;;;;5004463;28;20073;-64
2023/02/07 10:34:56;;;;;;;29.08;15.23;;;21.80;28.80;;;;;;5010395;28;20138;-64
2023/02/07 10:37:26;;;;;;;32.08;15.40;;;21.90;28.80;;;;;;5007197;28;20053;-63
2023/02/07 10:39:59;;;;;;;;;;;22.00;28.80;;;;;;5006026;28;20184;-65
2023/02/07 10:42:30;;;;;;;28.02;15.23;;;22.00;28.80;;;;;;5007848;28;20284;-65
2023/02/07 10:44:57;;;;;;;33.58;15.93;;;22.00;28.90;;;;;;4987596;28;20080;-68
2023/02/07 10:47:25;;;;;;;38.03;15.18;;;22.10;28.90;;;;;;5010305;28;20068;-67
2023/02/07 10:49:54;;;;;;;28.60;14.88;;;22.10;28.90;;;;;;5008047;28;20129;-65
2023/02/07 10:52:43;;;;;;;34.80;15.90;;;22.10;28.80;;;;;;5006942;28;20541;-65
2023/02/07 10:55:18;;;;;;;27.42;14.77;;;22.10;28.80;;;;;;5007408;28;20305;-64
2023/02/07 10:57:54;;;;;;;26.20;14.85;;;22.10;28.80;;;;;;4991754;28;20478;-63
2023/02/07 11:00:33;;;;;;;27.88;13.30;;;22.20;28.80;;;;;;5005343;28;20054;-64
2023/02/07 11:03:13;;;;;;;31.25;14.88;;;22.20;28.90;;;;;;5008410;28;20053;-65
2023/02/07 11:05:57;;;;;;;22.80;12.95;;;22.20;28.70;;;;;;5008264;28;20042;-65
2023/02/07 11:08:27;;;;;;;23.60;14.07;;;22.30;29.00;;;;;;5001754;28;20054;-65
2023/02/07 11:10:56;;;;;;;22.23;13.02;;;22.30;28.50;;;;;;5004255;28;20078;-65
2023/02/07 11:13:27;;;;;;;23.17;12.73;;;22.30;28.50;;;;;;5007811;28;20142;-65
2023/02/07 11:16:05;;;;;;;23.15;13.68;;;22.40;28.50;;;;;;5009272;28;20330;-65
2023/02/07 11:19:01;;;;;;;23.70;12.95;;;22.40;28.40;;;;;;5009574;28;20504;-65
2023/02/07 11:21:43;;;;;;;27.50;14.00;;;22.50;28.20;;;;;;5010071;28;20514;-66
2023/02/07 11:24:30;;;;;;;21.35;12.45;;;22.50;28.20;;;;;;5008566;28;20462;-66
2023/02/07 11:27:14;;;;;;;23.73;13.60;;;22.50;28.20;;;;;;5009144;28;20111;-67
2023/02/07 11:30:03;;;;;;;18.90;12.40;;;22.50;28.20;;;;;;5009014;28;20758;-64
2023/02/07 11:32:30;;;;;;;19.02;11.35;;;22.60;28.10;;;;;;4984326;28;20096;-65
2023/02/07 11:35:08;;;;;;;20.33;12.00;;;22.60;28.00;;;;;;5008585;28;20049;-64
2023/02/07 11:37:40;;;;;;;21.17;12.60;;;22.60;27.90;;;;;;5008704;28;20058;-67
2023/02/07 11:40:26;;;;;;;19.40;12.25;;;22.60;27.90;;;;;;4992171;28;20054;-63
2023/02/07 11:43:05;;;;;;;20.00;12.95;;;22.60;27.90;;;;;;5007768;28;20181;-65
2023/02/07 11:45:33;;;;;;;21.65;11.88;;;22.60;27.80;;;;;;5007032;28;20052;-64
2023/02/07 11:48:01;;;;;;;19.92;11.77;;;22.70;27.80;;;;;;5006016;28;20085;-65
2023/02/07 11:50:39;;;;;;;16.05;11.25;;;22.70;27.80;;;;;;5004636;28;20136;-64
2023/02/07 11:53:23;;;;;;;18.15;11.50;;;22.70;27.80;;;;;;5004794;28;20088;-65
2023/02/07 11:55:53;;;;;;;16.40;11.00;;;22.70;27.70;;;;;;5006541;28;20042;-66
2023/02/07 11:58:41;;;;;;;19.63;12.02;;;22.70;27.70;;;;;;5003965;28;20053;-66
2023/02/07 12:01:24;;;;;;;18.90;12.25;;;22.70;27.70;;;;;;5007316;28;20060;-64
2023/02/07 12:03:59;;;;;;;21.88;12.20;;;22.70;27.80;;;;;;5006525;28;20524;-63
2023/02/07 12:06:40;;;;;;;20.73;11.63;;;22.70;27.60;;;;;;5007326;28;20080;-64
2023/02/07 12:09:27;;;;;;;18.70;11.23;;;22.70;27.60;;;;;;5003872;28;20056;-64
2023/02/07 12:11:56;;;;;;;18.33;10.90;;;22.70;27.70;;;;;;5005641;28;20072;-65
2023/02/07 12:14:49;;;;;;;17.15;10.75;;;22.70;27.70;;;;;;5005212;28;20054;-64
2023/02/07 12:17:24;;;;;;;19.67;12.20;;;22.60;27.60;;;;;;5005198;28;20064;-65
2023/02/07 12:19:56;;;;;;;16.20;10.98;;;22.60;27.60;;;;;;5006155;28;20042;-64
2023/02/07 12:22:34;;;;;;;18.02;9.95;;;22.60;27.60;;;;;;4996788;28;20054;-64
2023/02/07 12:25:13;;;;;;;16.48;10.52;;;22.60;27.60;;;;;;5007466;28;20129;-65
2023/02/07 12:27:44;;;;;;;17.65;10.20;;;22.60;27.50;;;;;;5007053;28;20054;-62
2023/02/07 12:30:32;;;;;;;15.13;9.80;;;22.60;27.30;;;;;;5004804;28;20080;-67
2023/02/07 12:33:20;;;;;;;15.90;10.65;;;22.60;27.30;;;;;;5005777;28;20056;-65
2023/02/07 12:36:02;;;;;;;14.27;9.77;;;22.70;27.30;;;;;;5005236;28;20051;-67
2023/02/07 12:38:49;;;;;;;15.25;9.80;;;22.70;27.20;;;;;;5005061;28;20060;-66
2023/02/07 12:41:57;;;;;;;13.75;9.52;;;22.70;27.10;;;;;;4987466;28;20041;-65
2023/02/07 12:44:39;;;;;;;15.45;10.07;;;22.70;27.10;;;;;;4986994;28;20046;-63
2023/02/07 12:47:34;;;;;;;13.38;9.60;;;22.80;27.10;;;;;;5004130;28;20056;-64
2023/02/07 12:50:28;;;;;;;12.68;9.10;;;22.80;27.00;;;;;;5008560;28;20058;-65
2023/02/07 12:53:27;;;;;;;17.02;10.07;;;22.80;27.00;;;;;;5006386;28;20057;-65
2023/02/07 12:56:34;;;;;;;15.85;10.07;;;22.80;27.00;;;;;;5008511;28;20643;-65